Andoya, Norway

7:00 AM CEST on September 24, 2014 (GMT +0200)
Evenes | Change Station
CLOSE
Current Station
Airport
Location: Evenes,
Elevation: 85 ft
Nearby Weather Stations

Elev 85 ft 68.49 °N, 16.68 °E | Updated 10 minutes ago

Clear
Clear
37 °F
Feels Like 28 °F
N
18
Wind Variable Wind from East
Gusts 30 mph

Today
High -- | Low -- °F
--% Chance of Precip.
Yesterday
High -- | Low -- °F
Precip. -- in
6:42 AM 6:50 PM
Waning Crescent, 0% visible
Pressure 29.89 in
Visibility -9999.0 miles
Clouds
Windchill 28 °F
Dew Point 23 °F
Humidity 56%
Rainfall 0.00 in
Snow Depth Not available.
UV Not available.
Pollen Not available.
Air Quality Not available.
Flu Activity Not available.
METAR ENEV 240450Z 08016G26KT CAVOK 03/M05 Q1012 RMK

More Conditions Fewer Conditions

Pressure 29.89 in
Visibility -9999.0 miles
Clouds
Windchill 28 °F
Dew Point 23 °F
Humidity 56%
Rainfall 0.00 in
Snow Depth Not available.
UV Not available.
Pollen Not available.
Air Quality Not available.
Flu Activity Not available.
METAR ENEV 240450Z 08016G26KT CAVOK 03/M05 Q1012 RMK

More Conditions Fewer Conditions

10-Day Weather Forecast

Almanac

Astronomy

Sep. 24, 2014 Rise Set
Actual Time 6:42 AM CEST 6:50 PM CEST
Civil Twilight 5:43 AM CEST 7:49 PM CEST
Nautical Twilight 4:28 AM CEST 9:02 PM CEST
Astronomical Twilight 2:51 AM CEST 10:37 PM CEST
Moon 7:02 AM CEST 6:23 PM CEST
Length of Visible Light 14h 05m
Length of Day
12h 07m
Tomorrow will be 8m 15s shorter.
Waning Crescent, 0% of the Moon is Illuminated
Today
Waning Crescent
Sep 24
New
Oct 1
First Quarter
Oct 8
Full
Oct 15
Last Quarter

Yesterday's Extremes

Country Highs Country Lows

Community

WunderPhotos

Upload Photos

1,755,891 photos uploaded!

WunderBlogs® & News

Nearby

Snow Depth

Not available.

Earthquake Activity

City Distance Mag. Time & Date
No recent earthquake activity has been reported nearby.
Minimum magnitude displayed is 2.5.

Coastal Water Temperatures

Place Temperature
No Stations Reporting

Nearby Weather Stations